createdAt,value
2019-02-22T00:02:19.619Z,101282.25
2019-02-22T00:04:51.468Z,101278.68
2019-02-22T00:07:22.099Z,101286.27
2019-02-22T00:09:52.914Z,101286.23
2019-02-22T00:12:25.077Z,101284.91
2019-02-22T00:14:55.500Z,101293.38
2019-02-22T00:17:26.003Z,101292.64
2019-02-22T00:19:57.669Z,101295.73
2019-02-22T00:22:28.104Z,101294.62
2019-02-22T00:24:58.496Z,101295.55
2019-02-22T00:27:30.063Z,101301.05
2019-02-22T00:30:00.539Z,101304.05
2019-02-22T00:32:31.318Z,101300.92
2019-02-22T00:35:02.246Z,101302.09
2019-02-22T00:37:32.613Z,101304.47
2019-02-22T00:40:05.093Z,101309.72
2019-02-22T00:42:36.070Z,101309.40
2019-02-22T00:45:06.472Z,101304.36
2019-02-22T00:47:37.146Z,101293.94
2019-02-22T00:50:07.489Z,101300.18
2019-02-22T00:52:37.980Z,101301.59
2019-02-22T00:55:11.590Z,101297.80
2019-02-22T00:57:42.116Z,101305.52
2019-02-22T01:00:12.787Z,101296.28
2019-02-22T01:02:43.209Z,101299.70
2019-02-22T01:05:14.028Z,101291.34
2019-02-22T01:07:44.473Z,101300.59
2019-02-22T01:10:16.979Z,101296.08
2019-02-22T01:12:48.547Z,101304.76
2019-02-22T01:15:21.040Z,101314.70
2019-02-22T01:17:51.502Z,101310.50
2019-02-22T01:20:21.891Z,101315.34
2019-02-22T01:22:52.295Z,101323.88
2019-02-22T01:25:22.771Z,101319.13
2019-02-22T01:27:53.301Z,101328.63
2019-02-22T01:30:23.903Z,101325.16
2019-02-22T01:32:56.479Z,101328.86
2019-02-22T01:35:26.912Z,101333.04
2019-02-22T01:37:57.308Z,101327.11
2019-02-22T01:40:29.780Z,101333.51
2019-02-22T01:43:00.263Z,101335.64
2019-02-22T01:45:30.657Z,101336.97
2019-02-22T01:48:04.132Z,101346.63
2019-02-22T01:50:34.817Z,101344.31
2019-02-22T01:53:05.603Z,101349.61
2019-02-22T01:55:36.389Z,101348.03
2019-02-22T01:58:06.793Z,101345.05
2019-02-22T02:00:47.521Z,101358.61
2019-02-22T02:03:59.630Z,101361.63
2019-02-22T02:06:25.776Z,101366.98
2019-02-22T02:08:56.162Z,101370.56
2019-02-22T02:11:26.701Z,101368.11
2019-02-22T02:13:58.886Z,101376.48
2019-02-22T02:16:29.409Z,101386.23
2019-02-22T02:19:00.174Z,101388.49
2019-02-22T02:21:30.603Z,101394.42
2019-02-22T02:24:01.460Z,101393.00
2019-02-22T02:26:31.858Z,101402.73
2019-02-22T02:29:04.285Z,101402.48
2019-02-22T02:31:34.635Z,101407.92
2019-02-22T02:34:07.106Z,101405.50
2019-02-22T02:36:37.531Z,101409.03
2019-02-22T02:39:08.906Z,101410.78
2019-02-22T02:41:39.280Z,101413.14
2019-02-22T02:44:09.745Z,101407.95
2019-02-22T02:46:40.116Z,101407.47
2019-02-22T02:49:10.923Z,101408.27
2019-02-22T02:51:41.677Z,101415.05
2019-02-22T02:54:12.159Z,101419.08
2019-02-22T02:56:42.700Z,101426.67
2019-02-22T02:59:13.117Z,101428.87
2019-02-22T03:01:43.802Z,101431.79
2019-02-22T03:04:18.142Z,101431.62
2019-02-22T03:06:59.976Z,101436.13
2019-02-22T03:09:30.409Z,101442.78
2019-02-22T03:12:00.872Z,101447.11
2019-02-22T03:14:31.236Z,101454.08
2019-02-22T03:17:01.543Z,101458.48
2019-02-22T03:19:33.168Z,101454.70
2019-02-22T03:22:03.576Z,101456.75
2019-02-22T03:24:34.022Z,101460.23
2019-02-22T03:27:04.736Z,101468.11
2019-02-22T03:29:35.812Z,101471.84
2019-02-22T03:32:06.258Z,101473.81
2019-02-22T03:34:36.676Z,101478.16
2019-02-22T03:37:07.177Z,101482.40
2019-02-22T03:39:37.930Z,101474.83
2019-02-22T03:42:09.483Z,101481.08
2019-02-22T03:44:39.911Z,101475.37
2019-02-22T03:47:10.259Z,101477.83
2019-02-22T03:49:40.677Z,101482.95
2019-02-22T03:52:42.074Z,101490.16
2019-02-22T03:55:12.479Z,101490.53
2019-02-22T03:57:44.232Z,101500.91
2019-02-22T04:00:14.707Z,101502.08
2019-02-22T04:02:45.355Z,101514.34
2019-02-22T04:05:15.799Z,101505.39
2019-02-22T04:07:46.318Z,101515.16
2019-02-22T04:10:16.905Z,101524.87
2019-02-22T04:12:47.830Z,101527.94
2019-02-22T04:15:18.167Z,101528.61
2019-02-22T04:17:48.633Z,101529.63
2019-02-22T04:20:19.120Z,101547.42
2019-02-22T04:22:50.385Z,101551.06
2019-02-22T04:25:21.215Z,101553.09
2019-02-22T04:27:53.375Z,101556.90
2019-02-22T04:30:24.129Z,101555.97
2019-02-22T04:32:54.495Z,101561.97
2019-02-22T04:35:25.277Z,101570.34
2019-02-22T04:37:55.699Z,101576.00
2019-02-22T04:40:26.086Z,101568.75
2019-02-22T04:42:59.438Z,101570.79
2019-02-22T04:45:30.081Z,101573.27
2019-02-22T04:48:00.469Z,101576.67
2019-02-22T04:50:31.237Z,101574.81
2019-02-22T04:53:01.676Z,101581.86
2019-02-22T04:55:32.106Z,101577.70
2019-02-22T04:58:02.537Z,101589.99
2019-02-22T05:00:32.885Z,101590.02
2019-02-22T05:03:03.246Z,101588.34
2019-02-22T05:05:33.975Z,101604.34
2019-02-22T05:08:04.358Z,101608.53
2019-02-22T05:10:34.795Z,101613.91
2019-02-22T05:13:05.532Z,101608.75
2019-02-22T05:15:35.988Z,101610.95
2019-02-22T05:18:06.421Z,101618.25
2019-02-22T05:20:37.232Z,101625.80
2019-02-22T05:23:07.752Z,101623.06
2019-02-22T05:25:38.497Z,101625.20
2019-02-22T05:28:08.867Z,101627.91
2019-02-22T05:30:39.727Z,101627.70
2019-02-22T05:33:10.140Z,101630.12
2019-02-22T05:35:40.760Z,101632.78
2019-02-22T05:38:12.520Z,101637.34
2019-02-22T05:40:43.953Z,101640.42
2019-02-22T05:43:15.065Z,101640.65
2019-02-22T05:45:48.728Z,101648.91
2019-02-22T05:48:20.968Z,101650.98
2019-02-22T05:50:52.949Z,101650.36
2019-02-22T05:53:24.048Z,101653.64
2019-02-22T05:55:54.752Z,101670.91
2019-02-22T05:58:25.090Z,101673.92
2019-02-22T06:00:55.498Z,101680.00
2019-02-22T06:03:26.052Z,101682.53
2019-02-22T06:05:56.692Z,101693.69
2019-02-22T06:08:27.131Z,101694.63
2019-02-22T06:10:57.614Z,101698.89
2019-02-22T06:13:28.351Z,101695.75
2019-02-22T06:15:58.733Z,101708.88
2019-02-22T06:18:29.476Z,101707.93
2019-02-22T06:20:59.848Z,101713.14
2019-02-22T06:23:30.214Z,101716.09
2019-02-22T06:26:02.647Z,101726.05
2019-02-22T06:28:32.767Z,101728.13
2019-02-22T06:31:03.138Z,101736.69
2019-02-22T06:33:33.889Z,101742.39
2019-02-22T06:36:05.461Z,101749.33
2019-02-22T06:38:36.279Z,101755.30
2019-02-22T06:41:07.027Z,101761.99
2019-02-22T06:43:37.440Z,101770.54
2019-02-22T06:46:07.813Z,101771.33
2019-02-22T06:48:38.186Z,101771.81
2019-02-22T06:51:08.569Z,101775.71
2019-02-22T06:53:38.972Z,101775.64
2019-02-22T06:56:09.484Z,101782.32
2019-02-22T06:58:39.825Z,101781.78
2019-02-22T07:01:10.251Z,101783.81
2019-02-22T07:03:40.606Z,101791.63
2019-02-22T07:06:11.375Z,101802.29
2019-02-22T07:08:41.777Z,101797.91
2019-02-22T07:11:22.935Z,101806.24
2019-02-22T07:13:53.251Z,101809.02
2019-02-22T07:16:23.626Z,101808.22
2019-02-22T07:18:54.384Z,101826.54
2019-02-22T07:21:25.096Z,101833.09
2019-02-22T07:23:55.415Z,101832.69
2019-02-22T07:26:25.933Z,101829.05
2019-02-22T07:28:56.662Z,101839.00
2019-02-22T07:31:28.628Z,101841.06
2019-02-22T07:33:59.086Z,101856.52
2019-02-22T07:36:29.609Z,101869.33
2019-02-22T07:39:00.332Z,101876.73
2019-02-22T07:41:30.819Z,101880.36
2019-02-22T07:44:01.502Z,101887.11
2019-02-22T07:46:32.244Z,101885.13
2019-02-22T07:49:03.740Z,101893.88
2019-02-22T07:51:34.079Z,101896.16
2019-02-22T07:54:04.528Z,101905.66
2019-02-22T07:56:37.927Z,101906.60
2019-02-22T07:59:12.400Z,101906.86
2019-02-22T08:01:48.002Z,101919.59
2019-02-22T08:04:18.481Z,101921.91
2019-02-22T08:06:48.950Z,101924.98
2019-02-22T08:09:19.361Z,101933.25
2019-02-22T08:11:49.874Z,101945.63
2019-02-22T08:14:20.354Z,101953.78
2019-02-22T08:16:52.864Z,101966.22
2019-02-22T08:19:22.969Z,101964.90
2019-02-22T08:21:53.333Z,101975.38
2019-02-22T08:24:25.949Z,101980.84
2019-02-22T08:26:59.223Z,101980.88
2019-02-22T08:29:30.236Z,101983.30
2019-02-22T08:32:00.630Z,101998.58
2019-02-22T08:34:32.172Z,101999.34
2019-02-22T08:37:02.927Z,102007.23
2019-02-22T08:39:34.994Z,102020.36
2019-02-22T08:42:05.504Z,102037.33
2019-02-22T08:44:36.384Z,102031.94
2019-02-22T08:47:09.214Z,102041.78
2019-02-22T08:49:39.853Z,102048.37
2019-02-22T08:52:10.351Z,102053.25
2019-02-22T08:54:46.963Z,102052.45
2019-02-22T08:57:17.246Z,102077.58
2019-02-22T08:59:57.002Z,102080.86
2019-02-22T09:02:27.565Z,102075.48
2019-02-22T09:04:58.116Z,102091.59
2019-02-22T09:07:30.144Z,102096.62
2019-02-22T09:10:00.825Z,102099.61
2019-02-22T09:12:31.194Z,102096.98
2019-02-22T09:15:02.024Z,102098.00
2019-02-22T09:17:32.494Z,102108.78
2019-02-22T09:20:02.882Z,102098.61
2019-02-22T09:22:33.247Z,102122.59
2019-02-22T09:25:04.064Z,102113.45
2019-02-22T09:27:34.883Z,102126.16
2019-02-22T09:30:16.662Z,102125.02
2019-02-22T09:32:47.172Z,102124.56
2019-02-22T09:35:17.703Z,102132.16
2019-02-22T09:37:48.554Z,102139.82
2019-02-22T09:40:25.361Z,102149.53
2019-02-22T09:43:05.512Z,102153.96
2019-02-22T09:45:35.922Z,102160.06
2019-02-22T09:48:08.694Z,102155.17
2019-02-22T09:50:39.921Z,102160.70
2019-02-22T09:53:20.673Z,102167.04
2019-02-22T09:56:18.415Z,102170.89
2019-02-22T09:58:54.014Z,102169.03
2019-02-22T10:01:34.289Z,102187.66
2019-02-22T10:04:17.826Z,102185.38
2019-02-22T10:10:18.704Z,102209.05
2019-02-22T10:12:49.733Z,102210.27
2019-02-22T10:15:35.460Z,102209.81
2019-02-22T10:18:05.987Z,102215.69
2019-02-22T10:20:36.493Z,102230.69
2019-02-22T10:23:09.378Z,102234.31
2019-02-22T10:25:39.550Z,102229.44
2019-02-22T10:28:17.705Z,102242.56
2019-02-22T10:30:45.614Z,102238.33
2019-02-22T10:33:16.429Z,102239.70
2019-02-22T10:35:49.031Z,102244.53
2019-02-22T10:38:21.958Z,102258.95
2019-02-22T10:40:52.427Z,102265.12
2019-02-22T10:43:27.633Z,102261.58
2019-02-22T10:45:58.447Z,102271.03
2019-02-22T10:48:30.137Z,102276.39
2019-02-22T10:51:06.474Z,102279.89
2019-02-22T10:53:37.493Z,102282.22
2019-02-22T10:56:12.001Z,102281.11
2019-02-22T10:58:42.428Z,102298.30
2019-02-22T11:01:16.567Z,102303.41
2019-02-22T11:03:46.994Z,102302.36
2019-02-22T11:06:17.499Z,102306.17
2019-02-22T11:08:50.315Z,102300.41
2019-02-22T11:11:20.980Z,102303.27
2019-02-22T11:13:54.629Z,102301.39
2019-02-22T11:16:25.104Z,102305.00
2019-02-22T11:18:55.550Z,102311.03
2019-02-22T11:21:26.121Z,102325.05
2019-02-22T11:24:02.568Z,102321.08
2019-02-22T11:26:36.969Z,102324.95
2019-02-22T11:29:12.284Z,102342.25
2019-02-22T11:31:46.066Z,102345.28
2019-02-22T11:34:17.289Z,102354.78
2019-02-22T11:36:50.476Z,102354.63
2019-02-22T11:39:23.296Z,102360.62
2019-02-22T11:41:54.349Z,102360.06
2019-02-22T11:44:39.799Z,102364.16
2019-02-22T11:47:11.528Z,102370.28
2019-02-22T11:49:42.054Z,102374.81
2019-02-22T11:52:12.442Z,102375.56
2019-02-22T11:54:42.868Z,102382.36
2019-02-22T11:57:14.111Z,102388.49
2019-02-22T11:59:46.657Z,102382.68
2019-02-22T12:02:21.988Z,102387.50
2019-02-22T12:05:07.573Z,102395.18
2019-02-22T12:07:45.683Z,102400.95
2019-02-22T12:10:19.680Z,102402.36
2019-02-22T12:12:53.643Z,102405.14
2019-02-22T12:15:25.849Z,102411.16
2019-02-22T12:17:56.631Z,102416.53
2019-02-22T12:20:27.527Z,102414.19
2019-02-22T12:23:03.566Z,102413.89
2019-02-22T12:25:36.465Z,102417.98
2019-02-22T12:28:07.035Z,102429.72
2019-02-22T12:30:47.300Z,102423.00
2019-02-22T12:33:21.945Z,102432.31
2019-02-22T12:35:55.033Z,102434.77
2019-02-22T12:38:28.234Z,102441.87
2019-02-22T12:41:03.237Z,102443.50
2019-02-22T12:43:34.469Z,102453.91
2019-02-22T12:46:10.187Z,102458.39
2019-02-22T12:48:41.308Z,102461.61
2019-02-22T12:51:15.093Z,102458.97
2019-02-22T12:53:46.255Z,102465.67
2019-02-22T12:56:21.458Z,102466.16
2019-02-22T12:58:51.029Z,102477.62
2019-02-22T13:01:21.750Z,102475.15
2019-02-22T13:04:00.465Z,102478.17
2019-02-22T13:06:31.561Z,102485.02
2019-02-22T13:09:02.354Z,102492.40
2019-02-22T13:11:40.761Z,102502.62
2019-02-22T13:14:10.591Z,102506.11
2019-02-22T13:16:52.579Z,102511.44
2019-02-22T13:19:36.144Z,102519.30
2019-02-22T13:22:06.605Z,102522.42
2019-02-22T13:24:38.763Z,102523.17
2019-02-22T13:27:08.539Z,102523.16
2019-02-22T13:29:39.090Z,102527.91
2019-02-22T13:32:09.628Z,102537.67
2019-02-22T13:34:42.601Z,102541.63
2019-02-22T13:37:13.353Z,102549.62
2019-02-22T13:39:44.437Z,102549.13
2019-02-22T13:42:15.550Z,102551.38
2019-02-22T13:44:46.178Z,102562.84
2019-02-22T13:47:18.654Z,102561.03
2019-02-22T13:49:48.829Z,102563.17
2019-02-22T13:52:24.331Z,102569.72
2019-02-22T13:54:55.083Z,102576.06
2019-02-22T13:57:30.313Z,102574.05
2019-02-22T14:00:01.495Z,102585.30
2019-02-22T14:02:41.166Z,102586.00
2019-02-22T14:05:20.542Z,102599.02
2019-02-22T14:08:05.830Z,102593.87
2019-02-22T14:10:44.913Z,102596.13
2019-02-22T14:13:20.444Z,102599.39
2019-02-22T14:16:01.803Z,102599.16
2019-02-22T14:18:56.097Z,102599.02
2019-02-22T14:21:32.046Z,102606.18
2019-02-22T14:24:13.986Z,102617.40
2019-02-22T14:26:48.710Z,102617.97
2019-02-22T14:29:26.725Z,102618.02
2019-02-22T14:31:57.137Z,102617.36
2019-02-22T14:34:27.532Z,102621.95
2019-02-22T14:36:57.978Z,102623.70
2019-02-22T14:39:28.697Z,102625.06
2019-02-22T14:41:59.005Z,102627.84
2019-02-22T14:44:32.722Z,102633.42
2019-02-22T14:47:04.790Z,102628.20
2019-02-22T14:49:35.840Z,102639.33
2019-02-22T14:52:24.952Z,102650.92
2019-02-22T14:55:08.598Z,102639.70
2019-02-22T14:57:41.003Z,102647.99
2019-02-22T15:00:34.949Z,102645.18
2019-02-22T15:03:06.913Z,102640.06
2019-02-22T15:09:12.021Z,102641.66
2019-02-22T15:11:46.365Z,102634.30
2019-02-22T15:14:18.114Z,102636.57
2019-02-22T15:17:03.335Z,102643.73
2019-02-22T15:19:33.682Z,102648.47
2019-02-22T15:22:04.081Z,102643.97
2019-02-22T15:24:35.235Z,102657.48
2019-02-22T15:27:10.220Z,102658.75
2019-02-22T15:29:40.646Z,102662.97
2019-02-22T15:32:10.962Z,102672.77
2019-02-22T15:34:41.394Z,102677.96
2019-02-22T15:37:11.952Z,102672.31
2019-02-22T15:39:44.640Z,102679.33
2019-02-22T15:42:16.897Z,102684.36
2019-02-22T15:44:47.357Z,102688.45
2019-02-22T15:47:17.793Z,102687.73
2019-02-22T15:49:52.418Z,102692.73
2019-02-22T15:52:28.167Z,102684.92
2019-02-22T15:54:59.119Z,102682.36
2019-02-22T15:57:29.726Z,102676.86
2019-02-22T16:00:19.836Z,102694.48
2019-02-22T16:02:57.010Z,102687.41
2019-02-22T16:05:31.096Z,102694.83
2019-02-22T16:08:02.085Z,102698.88
2019-02-22T16:11:00.458Z,102701.20
2019-02-22T16:13:32.567Z,102701.97
2019-02-22T16:16:03.231Z,102711.81
2019-02-22T16:18:34.894Z,102721.41
2019-02-22T16:21:09.831Z,102722.91
2019-02-22T16:23:40.590Z,102729.72
2019-02-22T16:26:11.362Z,102728.30
2019-02-22T16:28:41.830Z,102740.14
2019-02-22T16:31:12.726Z,102730.63
2019-02-22T16:33:43.143Z,102734.24
2019-02-22T16:36:13.548Z,102738.16
2019-02-22T16:38:47.167Z,102730.50
2019-02-22T16:41:18.867Z,102731.92
2019-02-22T16:43:53.614Z,102734.58
2019-02-22T16:46:34.438Z,102739.64
2019-02-22T16:48:57.311Z,102734.09
2019-02-22T16:51:40.249Z,102738.64
2019-02-22T16:54:19.252Z,102741.23
2019-02-22T16:56:56.391Z,102743.72
2019-02-22T16:59:30.224Z,102747.73
2019-02-22T17:02:06.110Z,102749.14
2019-02-22T17:04:38.512Z,102751.02
2019-02-22T17:07:12.728Z,102751.37
2019-02-22T17:09:43.409Z,102746.23
2019-02-22T17:12:17.527Z,102749.91
2019-02-22T17:14:51.425Z,102757.39
2019-02-22T17:17:21.909Z,102752.45
2019-02-22T17:19:52.337Z,102763.47
2019-02-22T17:22:22.776Z,102765.55
2019-02-22T17:24:53.214Z,102767.59
2019-02-22T17:27:36.610Z,102765.70
2019-02-22T17:30:12.819Z,102771.98
2019-02-22T17:32:46.391Z,102777.50
2019-02-22T17:35:17.210Z,102788.56
2019-02-22T17:37:50.592Z,102792.39
2019-02-22T17:40:47.524Z,102800.06
2019-02-22T17:43:31.569Z,102808.59
2019-02-22T17:46:08.979Z,102814.14
2019-02-22T17:48:42.599Z,102824.42
2019-02-22T17:51:22.685Z,102838.83
2019-02-22T17:53:51.742Z,102837.89
2019-02-22T17:56:23.033Z,102830.23
2019-02-22T17:58:59.717Z,102827.36
2019-02-22T18:01:35.648Z,102826.61
2019-02-22T18:04:10.990Z,102821.27
2019-02-22T18:06:41.718Z,102815.16
2019-02-22T18:09:12.492Z,102818.38
2019-02-22T18:11:45.241Z,102815.27
2019-02-22T18:14:37.903Z,102812.00
2019-02-22T18:17:08.749Z,102823.39
2019-02-22T18:19:43.631Z,102820.69
2019-02-22T18:22:26.044Z,102829.05
2019-02-22T18:24:57.111Z,102842.59
2019-02-22T18:27:33.436Z,102841.18
2019-02-22T18:30:06.716Z,102837.14
2019-02-22T18:32:37.567Z,102844.26
2019-02-22T18:35:08.774Z,102852.10
2019-02-22T18:37:40.156Z,102849.73
2019-02-22T18:40:14.340Z,102861.58
2019-02-22T18:42:48.087Z,102869.33
2019-02-22T18:45:23.060Z,102875.19
2019-02-22T18:47:56.658Z,102873.27
2019-02-22T18:50:27.423Z,102876.52
2019-02-22T18:52:58.453Z,102872.55
2019-02-22T18:55:29.440Z,102869.48
2019-02-22T18:58:03.729Z,102860.74
2019-02-22T19:00:37.605Z,102866.77
2019-02-22T19:03:07.329Z,102867.45
2019-02-22T19:05:43.886Z,102881.31
2019-02-22T19:08:32.165Z,102887.80
2019-02-22T19:11:00.296Z,102878.92
2019-02-22T19:13:56.531Z,102878.15
2019-02-22T19:16:36.589Z,102872.71
2019-02-22T19:19:32.570Z,102875.65
2019-02-22T19:22:30.584Z,102869.64
2019-02-22T19:25:12.088Z,102862.70
2019-02-22T19:27:51.936Z,102856.58
2019-02-22T19:30:23.069Z,102865.37
2019-02-22T19:32:53.535Z,102871.16
2019-02-22T19:35:27.794Z,102874.48
2019-02-22T19:38:02.198Z,102876.79
2019-02-22T19:40:33.150Z,102872.41
2019-02-22T19:43:05.489Z,102879.80
2019-02-22T19:46:03.502Z,102885.78
2019-02-22T19:48:31.081Z,102887.23
2019-02-22T19:51:09.185Z,102890.08
2019-02-22T19:53:41.289Z,102890.36
2019-02-22T19:56:15.677Z,102896.17
2019-02-22T19:58:48.651Z,102887.41
2019-02-22T20:01:20.950Z,102884.68
2019-02-22T20:03:56.437Z,102880.77
2019-02-22T20:06:33.873Z,102881.08
2019-02-22T20:09:07.192Z,102881.38
2019-02-22T20:11:41.739Z,102886.79
2019-02-22T20:14:17.981Z,102890.02
2019-02-22T20:16:56.752Z,102889.86
2019-02-22T20:19:27.330Z,102894.63
2019-02-22T20:22:06.947Z,102903.45
2019-02-22T20:24:49.858Z,102903.82
2019-02-22T20:27:38.830Z,102909.62
2019-02-22T20:30:14.769Z,102919.74
2019-02-22T20:32:46.593Z,102929.61
2019-02-22T20:35:24.531Z,102936.53
2019-02-22T20:38:08.315Z,102933.62
2019-02-22T20:40:39.475Z,102939.94
2019-02-22T20:43:10.357Z,102945.44
2019-02-22T20:45:43.774Z,102946.97
2019-02-22T20:48:16.327Z,102946.97
2019-02-22T20:50:47.180Z,102954.09
2019-02-22T20:53:17.876Z,102955.80
2019-02-22T20:55:48.838Z,102961.95
2019-02-22T20:58:34.354Z,102952.47
2019-02-22T21:01:14.539Z,102959.25
2019-02-22T21:03:50.444Z,102949.25
2019-02-22T21:06:27.181Z,102951.55
2019-02-22T21:09:00.616Z,102948.42
2019-02-22T21:11:31.144Z,102945.80
2019-02-22T21:14:01.789Z,102952.52
2019-02-22T21:16:33.090Z,102953.42
2019-02-22T21:19:03.991Z,102952.36
2019-02-22T21:21:38.635Z,102954.50
2019-02-22T21:24:09.017Z,102954.20
2019-02-22T21:26:40.988Z,102953.81
2019-02-22T21:29:11.643Z,102951.62
2019-02-22T21:31:42.512Z,102955.05
2019-02-22T21:34:12.911Z,102952.36
2019-02-22T21:36:43.347Z,102961.55
2019-02-22T21:39:14.087Z,102959.33
2019-02-22T21:41:44.823Z,102958.03
2019-02-22T21:44:15.560Z,102957.23
2019-02-22T21:46:45.986Z,102965.05
2019-02-22T21:49:16.468Z,102964.70
2019-02-22T21:51:46.930Z,102966.66
2019-02-22T21:54:45.826Z,102970.09
2019-02-22T21:57:16.465Z,102973.03
2019-02-22T21:59:47.202Z,102975.17
2019-02-22T22:02:17.817Z,102977.86
2019-02-22T22:04:48.261Z,102976.06
2019-02-22T22:07:20.805Z,102978.63
2019-02-22T22:09:51.378Z,102972.02
2019-02-22T22:12:21.771Z,102977.51
2019-02-22T22:14:52.307Z,102984.51
2019-02-22T22:17:22.845Z,102989.80
2019-02-22T22:19:54.570Z,103005.01
2019-02-22T22:22:24.923Z,103007.89
2019-02-22T22:24:56.375Z,102999.70
2019-02-22T22:27:27.192Z,103004.52
2019-02-22T22:29:59.173Z,103009.18
2019-02-22T22:32:31.655Z,103007.81
2019-02-22T22:35:02.470Z,103011.67
2019-02-22T22:37:34.026Z,103011.06
2019-02-22T22:40:04.986Z,103012.52
2019-02-22T22:42:35.853Z,103014.06
2019-02-22T22:45:10.027Z,103017.73
2019-02-22T22:47:40.795Z,103024.59
2019-02-22T22:50:12.693Z,103027.00
2019-02-22T22:52:43.227Z,103027.55
2019-02-22T22:55:13.633Z,103025.91
2019-02-22T22:57:44.051Z,103035.84
2019-02-22T23:01:01.003Z,103034.72
2019-02-22T23:03:31.470Z,103044.11
2019-02-22T23:06:01.929Z,103045.75
2019-02-22T23:08:32.312Z,103042.21
2019-02-22T23:11:03.190Z,103048.16
2019-02-22T23:13:36.148Z,103042.08
2019-02-22T23:16:09.531Z,103049.27
2019-02-22T23:18:43.940Z,103048.47
2019-02-22T23:21:15.483Z,103046.95
2019-02-22T23:23:55.376Z,103046.52
2019-02-22T23:26:26.110Z,103047.16
2019-02-22T23:28:56.575Z,103047.70
2019-02-22T23:31:29.420Z,103052.79
2019-02-22T23:34:02.472Z,103048.92
2019-02-22T23:36:35.375Z,103041.53
2019-02-22T23:39:11.008Z,103046.20
2019-02-22T23:41:41.628Z,103033.72
2019-02-22T23:44:12.505Z,103032.83
2019-02-22T23:46:43.382Z,103038.61
2019-02-22T23:49:14.173Z,103033.16
2019-02-22T23:51:45.519Z,103038.84
2019-02-22T23:54:17.551Z,103034.08
2019-02-22T23:56:50.942Z,103035.83
2019-02-22T23:59:25.448Z,103032.15
